Terminal Aerodrome Forecast
Issued by NWS

Home | Current Version | Previous Version | Text Only | Print | Product List | Glossary On
Versions: 1 2 3 4 5 6 7 8 9 10 11 12 13 14 15 16 17 18 19 20
000
FTUS46 KSEW 252100 AAA
TAFBFI
TAF AMD
KBFI 252101Z 2521/2618 00000KT 2SM BR BKN005 OVC010
     FM260100 17008G15KT 5SM -RA BR OVC020
     FM260700 17011KT 4SM BR VCSH OVC020=

USA.gov is the U.S. government's official web portal to all federal, state and local government web resources and services.